Time;durP1;ratioP1;P1;durP2;ratioP2;P2;SDS_P1;SDS_P2;PMS_P1;PMS_P2;Temp;Humidity;BMP_temperature;BMP_pressure;BME280_temperature;BME280_humidity;BME280_pressure;Samples;Min_cycle;Max_cycle;Signal;HPM_P1;HPM_P2
2024/01/10 00:01:46;;;;;;;23.42;13.35;;;;;;;;;;4970235;28;20058;-67
2024/01/10 00:04:13;;;;;;;24.55;12.70;;;;;;;;;;4986453;28;20042;-67
2024/01/10 00:06:42;;;;;;;21.38;12.45;;;;;;;;;;4973996;28;20098;-67
2024/01/10 00:09:08;;;;;;;24.58;13.77;;;;;;;;;;4978804;28;20046;-67
2024/01/10 00:11:34;;;;;;;21.58;13.15;;;;;;;;;;4970661;28;20047;-67
2024/01/10 00:14:03;;;;;;;22.75;12.93;;;;;;;;;;4960013;28;20137;-67
2024/01/10 00:16:29;;;;;;;23.05;13.48;;;;;;;;;;4977107;28;20046;-67
2024/01/10 00:18:55;;;;;;;22.23;13.30;;;;;;;;;;4984464;28;20046;-67
2024/01/10 00:21:21;;;;;;;22.48;12.70;;;;;;;;;;4987290;28;20497;-67
2024/01/10 00:23:47;;;;;;;21.05;12.55;;;;;;;;;;4972822;28;20039;-67
2024/01/10 00:26:13;;;;;;;28.02;13.05;;;;;;;;;;4984265;28;20051;-67
2024/01/10 00:28:39;;;;;;;21.92;11.93;;;;;;;;;;4952759;28;20130;-67
2024/01/10 00:31:05;;;;;;;22.17;12.73;;;;;;;;;;4959636;28;20122;-67
2024/01/10 00:33:31;;;;;;;21.20;12.13;;;;;;;;;;4972500;28;20053;-67
2024/01/10 00:35:57;;;;;;;23.15;13.82;;;;;;;;;;4988107;28;20034;-67
2024/01/10 00:38:23;;;;;;;19.88;12.52;;;;;;;;;;4979201;28;20034;-67
2024/01/10 00:40:49;;;;;;;24.25;13.27;;;;;;;;;;4967197;28;20031;-67
2024/01/10 00:43:17;;;;;;;22.80;12.77;;;;;;;;;;4986547;28;20034;-67
2024/01/10 00:45:43;;;;;;;25.23;12.40;;;;;;;;;;4968995;28;20440;-67
2024/01/10 00:48:09;;;;;;;19.25;11.45;;;;;;;;;;4971984;28;20122;-67
2024/01/10 00:50:35;;;;;;;22.88;12.40;;;;;;;;;;4984205;28;20038;-67
2024/01/10 00:53:02;;;;;;;19.65;11.30;;;;;;;;;;4992982;28;20507;-67
2024/01/10 00:55:28;;;;;;;21.40;11.93;;;;;;;;;;4974764;28;20109;-67
2024/01/10 00:57:54;;;;;;;18.55;11.25;;;;;;;;;;4973772;28;20752;-67
2024/01/10 01:00:20;;;;;;;22.10;12.73;;;;;;;;;;4973117;28;20082;-67
2024/01/10 01:02:46;;;;;;;21.10;12.13;;;;;;;;;;4979670;28;20135;-67
2024/01/10 01:05:12;;;;;;;18.40;11.40;;;;;;;;;;4973528;28;20568;-67
2024/01/10 01:07:38;;;;;;;20.88;11.40;;;;;;;;;;4986284;28;20050;-67
2024/01/10 01:10:04;;;;;;;19.98;12.07;;;;;;;;;;4985636;28;20039;-67
2024/01/10 01:12:30;;;;;;;22.13;12.48;;;;;;;;;;4973284;28;20041;-67
2024/01/10 01:14:56;;;;;;;20.50;11.43;;;;;;;;;;4973237;28;20452;-67
2024/01/10 01:17:22;;;;;;;20.48;11.45;;;;;;;;;;4973105;28;20039;-67
2024/01/10 01:19:48;;;;;;;21.48;13.00;;;;;;;;;;4973499;28;20809;-67
2024/01/10 01:22:14;;;;;;;22.35;12.32;;;;;;;;;;4972362;28;20129;-67
2024/01/10 01:24:40;;;;;;;23.50;12.63;;;;;;;;;;4973427;28;20636;-67
2024/01/10 01:27:06;;;;;;;22.15;12.45;;;;;;;;;;4975058;28;20043;-67
2024/01/10 01:29:32;;;;;;;19.25;11.55;;;;;;;;;;4972670;28;20043;-67
2024/01/10 01:31:58;;;;;;;20.48;11.65;;;;;;;;;;4972857;28;20039;-67
2024/01/10 01:34:24;;;;;;;21.25;12.02;;;;;;;;;;4980751;28;20061;-67
2024/01/10 01:36:51;;;;;;;20.70;12.82;;;;;;;;;;4992250;28;20049;-67
2024/01/10 01:39:17;;;;;;;22.15;11.73;;;;;;;;;;4977144;28;20580;-67
2024/01/10 01:41:43;;;;;;;19.80;12.43;;;;;;;;;;4983030;28;20049;-67
2024/01/10 01:44:09;;;;;;;19.50;12.07;;;;;;;;;;4972839;28;20050;-67
2024/01/10 01:46:35;;;;;;;21.30;12.40;;;;;;;;;;4972477;28;20134;-67
2024/01/10 01:49:02;;;;;;;20.45;11.90;;;;;;;;;;4972781;28;20050;-67
2024/01/10 01:51:28;;;;;;;19.38;11.68;;;;;;;;;;4972294;28;20043;-67
2024/01/10 01:53:54;;;;;;;19.27;11.88;;;;;;;;;;4972113;28;20090;-67
2024/01/10 01:56:21;;;;;;;21.45;12.23;;;;;;;;;;4972939;28;20046;-67
2024/01/10 01:58:48;;;;;;;21.23;12.60;;;;;;;;;;4971764;28;20049;-67
2024/01/10 02:01:14;;;;;;;21.70;13.05;;;;;;;;;;4972106;28;20178;-67
2024/01/10 02:03:40;;;;;;;22.70;12.25;;;;;;;;;;4972404;28;20055;-67
2024/01/10 02:06:06;;;;;;;23.08;12.13;;;;;;;;;;4986745;28;20607;-67
2024/01/10 02:08:33;;;;;;;22.00;11.90;;;;;;;;;;4953827;28;20054;-67
2024/01/10 02:11:03;;;;;;;22.48;11.77;;;;;;;;;;4972299;28;20567;-67
2024/01/10 02:13:29;;;;;;;22.10;12.32;;;;;;;;;;4991016;28;20058;-67
2024/01/10 02:15:55;;;;;;;20.42;12.27;;;;;;;;;;4971491;28;20046;-67
2024/01/10 02:18:21;;;;;;;23.58;11.93;;;;;;;;;;4971091;28;20038;-67
2024/01/10 02:20:47;;;;;;;21.45;12.13;;;;;;;;;;4971088;28;20126;-67
2024/01/10 02:23:13;;;;;;;18.50;11.05;;;;;;;;;;4984314;28;20485;-67
2024/01/10 02:25:40;;;;;;;21.38;11.40;;;;;;;;;;4954435;28;20034;-67
2024/01/10 02:28:07;;;;;;;20.35;12.18;;;;;;;;;;4972218;28;20089;-67
2024/01/10 02:30:33;;;;;;;19.40;11.63;;;;;;;;;;4971964;28;20117;-67
2024/01/10 02:32:59;;;;;;;24.88;12.52;;;;;;;;;;4971719;28;20393;-67
2024/01/10 02:35:26;;;;;;;19.67;11.88;;;;;;;;;;4984973;28;20097;-67
2024/01/10 02:37:53;;;;;;;21.02;11.57;;;;;;;;;;4971810;28;20046;-67
2024/01/10 02:40:19;;;;;;;20.13;11.32;;;;;;;;;;4971657;28;20077;-67
2024/01/10 02:42:45;;;;;;;18.60;11.55;;;;;;;;;;4980128;28;20065;-67
2024/01/10 02:45:11;;;;;;;19.88;11.77;;;;;;;;;;4991474;28;20042;-67
2024/01/10 02:47:37;;;;;;;20.25;11.40;;;;;;;;;;4974892;28;20049;-67
2024/01/10 02:50:04;;;;;;;21.65;11.88;;;;;;;;;;4971611;28;20397;-67
2024/01/10 02:52:30;;;;;;;22.63;12.18;;;;;;;;;;4971660;28;20504;-66
2024/01/10 02:54:56;;;;;;;19.08;11.40;;;;;;;;;;4971273;28;20039;-66
2024/01/10 02:57:22;;;;;;;19.80;11.43;;;;;;;;;;4971604;28;20039;-66
2024/01/10 02:59:48;;;;;;;22.20;12.55;;;;;;;;;;4971552;28;20505;-66
2024/01/10 03:02:14;;;;;;;20.70;12.50;;;;;;;;;;4970984;28;20050;-66
2024/01/10 03:04:41;;;;;;;22.75;12.55;;;;;;;;;;4971411;28;20050;-66
2024/01/10 03:07:07;;;;;;;23.10;13.27;;;;;;;;;;4971329;28;20505;-66
2024/01/10 03:09:33;;;;;;;23.08;13.02;;;;;;;;;;4971306;28;20046;-66
2024/01/10 03:11:59;;;;;;;23.13;13.50;;;;;;;;;;4980228;28;20069;-66
2024/01/10 03:14:25;;;;;;;20.90;13.15;;;;;;;;;;4985120;28;20050;-66
2024/01/10 03:16:51;;;;;;;23.88;13.32;;;;;;;;;;4971617;28;20496;-66
2024/01/10 03:19:17;;;;;;;27.40;14.23;;;;;;;;;;4971134;28;20085;-66
2024/01/10 03:21:42;;;;;;;26.52;14.43;;;;;;;;;;4971002;28;20070;-66
2024/01/10 03:24:09;;;;;;;24.48;14.20;;;;;;;;;;4971123;28;20050;-66
2024/01/10 03:26:35;;;;;;;26.58;15.43;;;;;;;;;;4974512;28;20113;-66
2024/01/10 03:29:01;;;;;;;21.27;13.77;;;;;;;;;;4969913;28;20122;-66
2024/01/10 03:31:28;;;;;;;25.08;14.02;;;;;;;;;;4970829;28;20798;-66
2024/01/10 03:33:54;;;;;;;26.40;14.57;;;;;;;;;;4970268;28;20512;-66
2024/01/10 03:36:20;;;;;;;24.30;14.27;;;;;;;;;;4970605;28;20039;-66
2024/01/10 03:38:46;;;;;;;23.83;13.68;;;;;;;;;;4971035;28;20041;-66
2024/01/10 03:41:16;;;;;;;27.55;13.82;;;;;;;;;;4988833;28;20097;-66
2024/01/10 03:43:42;;;;;;;23.63;14.13;;;;;;;;;;4974088;28;20641;-66
2024/01/10 03:46:08;;;;;;;27.17;14.55;;;;;;;;;;4970302;28;20130;-66
2024/01/10 03:48:34;;;;;;;25.58;13.48;;;;;;;;;;4969174;28;20663;-66
2024/01/10 03:51:00;;;;;;;25.73;14.45;;;;;;;;;;4970603;28;20101;-66
2024/01/10 03:53:27;;;;;;;24.42;14.30;;;;;;;;;;4969757;28;20039;-66
2024/01/10 03:55:53;;;;;;;24.48;14.20;;;;;;;;;;4970193;28;20035;-66
2024/01/10 03:58:19;;;;;;;27.65;16.00;;;;;;;;;;4972674;28;20068;-66
2024/01/10 04:00:45;;;;;;;27.58;15.13;;;;;;;;;;4989703;28;20041;-66
2024/01/10 04:03:11;;;;;;;26.52;14.85;;;;;;;;;;4980370;28;20158;-66
2024/01/10 04:05:37;;;;;;;28.15;13.80;;;;;;;;;;4970476;28;20652;-66
2024/01/10 04:08:03;;;;;;;26.33;15.55;;;;;;;;;;4986383;28;20049;-66
2024/01/10 04:10:29;;;;;;;29.65;15.18;;;;;;;;;;4986259;28;20133;-66
2024/01/10 04:12:56;;;;;;;27.98;15.48;;;;;;;;;;4970308;28;20061;-66
2024/01/10 04:15:22;;;;;;;25.48;15.20;;;;;;;;;;4959221;28;20122;-66
2024/01/10 04:17:48;;;;;;;27.13;14.50;;;;;;;;;;4970599;28;20050;-66
2024/01/10 04:20:14;;;;;;;28.30;15.48;;;;;;;;;;4987503;28;20077;-66
2024/01/10 04:22:40;;;;;;;32.33;16.73;;;;;;;;;;4986309;28;20630;-66
2024/01/10 04:25:07;;;;;;;28.58;15.38;;;;;;;;;;4973697;28;20039;-66
2024/01/10 04:27:33;;;;;;;29.23;14.68;;;;;;;;;;4977433;28;20655;-66
2024/01/10 04:29:59;;;;;;;28.05;15.32;;;;;;;;;;4973696;28;20066;-66
2024/01/10 04:32:25;;;;;;;27.85;15.52;;;;;;;;;;4974116;28;20081;-66
2024/01/10 04:34:51;;;;;;;27.13;15.00;;;;;;;;;;4978945;28;20081;-66
2024/01/10 04:37:18;;;;;;;27.75;15.15;;;;;;;;;;4993484;28;20056;-66
2024/01/10 04:39:44;;;;;;;25.40;15.18;;;;;;;;;;4980767;28;20078;-66
2024/01/10 04:42:13;;;;;;;27.58;15.32;;;;;;;;;;4956326;28;20047;-66
2024/01/10 04:44:39;;;;;;;29.77;15.70;;;;;;;;;;4992603;28;20046;-66
2024/01/10 04:47:06;;;;;;;27.55;15.45;;;;;;;;;;4986103;28;20105;-66
2024/01/10 04:49:32;;;;;;;31.20;15.55;;;;;;;;;;4973688;28;20085;-66
2024/01/10 04:51:58;;;;;;;28.38;15.85;;;;;;;;;;4961811;28;20098;-66
2024/01/10 04:54:24;;;;;;;27.08;15.43;;;;;;;;;;4973009;28;20046;-66
2024/01/10 04:56:50;;;;;;;33.58;16.65;;;;;;;;;;4973224;28;20551;-66
2024/01/10 04:59:16;;;;;;;27.73;16.42;;;;;;;;;;4973324;28;20047;-66
2024/01/10 05:01:42;;;;;;;32.42;16.80;;;;;;;;;;4973339;28;20058;-66
2024/01/10 05:04:08;;;;;;;31.42;16.15;;;;;;;;;;4988788;28;20114;-66
2024/01/10 05:06:34;;;;;;;28.15;15.77;;;;;;;;;;4990133;28;20140;-66
2024/01/10 05:09:00;;;;;;;27.67;15.98;;;;;;;;;;4973340;28;20742;-66
2024/01/10 05:11:26;;;;;;;27.77;16.20;;;;;;;;;;4978019;28;20038;-66
2024/01/10 05:13:52;;;;;;;27.92;16.25;;;;;;;;;;4992538;28;20084;-66
2024/01/10 05:16:18;;;;;;;28.92;16.88;;;;;;;;;;4976017;28;20066;-66
2024/01/10 05:18:44;;;;;;;28.77;16.52;;;;;;;;;;4973396;28;20051;-66
2024/01/10 05:21:10;;;;;;;26.80;16.45;;;;;;;;;;4973149;28;20089;-66
2024/01/10 05:23:38;;;;;;;28.33;15.45;;;;;;;;;;4973038;28;20047;-66
2024/01/10 05:26:04;;;;;;;28.48;16.30;;;;;;;;;;4972395;28;20096;-66
2024/01/10 05:28:30;;;;;;;31.25;16.77;;;;;;;;;;4942454;28;20050;-66
2024/01/10 05:30:57;;;;;;;30.08;16.77;;;;;;;;;;4955964;28;20122;-66
2024/01/10 05:33:23;;;;;;;28.33;16.88;;;;;;;;;;4972291;28;20081;-66
2024/01/10 05:35:49;;;;;;;27.85;15.88;;;;;;;;;;4963210;28;20496;-66
2024/01/10 05:38:15;;;;;;;32.15;16.90;;;;;;;;;;4973036;28;20043;-66
2024/01/10 05:40:41;;;;;;;30.58;16.80;;;;;;;;;;4972748;28;20034;-66
2024/01/10 05:43:07;;;;;;;27.65;16.50;;;;;;;;;;4977725;28;20038;-66
2024/01/10 05:45:33;;;;;;;32.15;17.13;;;;;;;;;;4991687;28;20043;-66
2024/01/10 05:48:00;;;;;;;34.05;17.35;;;;;;;;;;4980138;28;20042;-66
2024/01/10 05:50:26;;;;;;;29.20;16.25;;;;;;;;;;4967393;28;20481;-66
2024/01/10 05:52:53;;;;;;;30.55;16.88;;;;;;;;;;4972650;28;20133;-66
2024/01/10 05:55:19;;;;;;;31.20;18.13;;;;;;;;;;4971788;28;20094;-66
2024/01/10 05:57:45;;;;;;;28.58;16.77;;;;;;;;;;4972927;28;20046;-66
2024/01/10 06:00:12;;;;;;;31.17;16.98;;;;;;;;;;4972379;28;20085;-66
2024/01/10 06:02:41;;;;;;;32.10;17.38;;;;;;;;;;4972499;28;20063;-66
2024/01/10 06:05:11;;;;;;;30.88;17.20;;;;;;;;;;4991324;28;20120;-66
2024/01/10 06:07:37;;;;;;;30.35;16.55;;;;;;;;;;4983237;28;20130;-66
2024/01/10 06:10:03;;;;;;;29.30;16.58;;;;;;;;;;4971959;28;20043;-66
2024/01/10 06:12:29;;;;;;;30.00;17.00;;;;;;;;;;4985190;28;20042;-66
2024/01/10 06:14:56;;;;;;;31.00;16.75;;;;;;;;;;4988880;28;20440;-66
2024/01/10 06:17:22;;;;;;;31.63;18.38;;;;;;;;;;4972087;28;20039;-66
2024/01/10 06:19:48;;;;;;;33.45;17.17;;;;;;;;;;4972315;28;20160;-66
2024/01/10 06:22:17;;;;;;;29.30;16.48;;;;;;;;;;4972035;28;20081;-66
2024/01/10 06:24:43;;;;;;;30.25;16.13;;;;;;;;;;4972071;28;20042;-66
2024/01/10 06:27:09;;;;;;;29.95;17.35;;;;;;;;;;4975052;28;20152;-66
2024/01/10 06:29:36;;;;;;;29.42;17.65;;;;;;;;;;4972283;28;20491;-66
2024/01/10 06:32:02;;;;;;;30.70;17.23;;;;;;;;;;4970039;28;20035;-66
2024/01/10 06:34:28;;;;;;;33.63;17.95;;;;;;;;;;4972585;28;20050;-66
2024/01/10 06:36:54;;;;;;;31.30;17.05;;;;;;;;;;4969696;28;20076;-66
2024/01/10 06:39:20;;;;;;;29.77;17.42;;;;;;;;;;4976981;28;20453;-66
2024/01/10 06:41:47;;;;;;;28.58;16.63;;;;;;;;;;4977467;28;20046;-66
2024/01/10 06:44:13;;;;;;;27.55;16.02;;;;;;;;;;4983810;28;20574;-66
2024/01/10 06:46:39;;;;;;;28.70;15.55;;;;;;;;;;4972826;28;20698;-66
2024/01/10 06:49:07;;;;;;;29.90;16.25;;;;;;;;;;4971876;28;20105;-66
2024/01/10 06:51:33;;;;;;;27.58;16.73;;;;;;;;;;4971933;28;20090;-66
2024/01/10 06:54:05;;;;;;;27.38;16.30;;;;;;;;;;4971763;28;20121;-66
2024/01/10 06:56:32;;;;;;;32.53;18.20;;;;;;;;;;4971298;28;20061;-66
2024/01/10 06:58:58;;;;;;;28.42;16.33;;;;;;;;;;4971198;28;20133;-66
2024/01/10 07:01:24;;;;;;;33.17;17.42;;;;;;;;;;4971106;28;20063;-66
2024/01/10 07:03:52;;;;;;;31.63;17.60;;;;;;;;;;4971557;28;20077;-66
2024/01/10 07:06:18;;;;;;;27.95;16.27;;;;;;;;;;4970665;28;20468;-66
2024/01/10 07:08:44;;;;;;;29.83;17.67;;;;;;;;;;4970963;28;20043;-66
2024/01/10 07:11:14;;;;;;;30.05;17.25;;;;;;;;;;4974152;28;20405;-66
2024/01/10 07:13:41;;;;;;;26.90;15.93;;;;;;;;;;4990478;28;20038;-66
2024/01/10 07:16:07;;;;;;;30.55;15.82;;;;;;;;;;4983022;28;20034;-66
2024/01/10 07:18:33;;;;;;;29.65;16.55;;;;;;;;;;4990364;28;20125;-66
2024/01/10 07:20:59;;;;;;;28.58;16.10;;;;;;;;;;4973079;28;20117;-66
2024/01/10 07:23:25;;;;;;;28.70;16.85;;;;;;;;;;4971126;28;20046;-66
2024/01/10 07:25:51;;;;;;;26.55;16.17;;;;;;;;;;4969812;28;20066;-64
2024/01/10 07:28:17;;;;;;;29.80;16.77;;;;;;;;;;4973676;28;20035;-64
2024/01/10 07:30:44;;;;;;;28.38;16.88;;;;;;;;;;4969625;28;20035;-64
2024/01/10 07:33:10;;;;;;;28.42;15.98;;;;;;;;;;4976179;28;20035;-64
2024/01/10 07:35:37;;;;;;;28.45;16.50;;;;;;;;;;4968765;28;20035;-64
2024/01/10 07:38:04;;;;;;;29.90;16.60;;;;;;;;;;4970518;28;20046;-64
2024/01/10 07:40:30;;;;;;;28.50;16.02;;;;;;;;;;4974466;28;20042;-65
2024/01/10 07:42:56;;;;;;;27.75;16.23;;;;;;;;;;4971101;28;20064;-64
2024/01/10 07:45:22;;;;;;;27.95;16.05;;;;;;;;;;4970486;28;20109;-64
2024/01/10 07:47:48;;;;;;;27.20;16.90;;;;;;;;;;4969920;28;20039;-64
2024/01/10 07:50:14;;;;;;;27.98;15.40;;;;;;;;;;4970549;28;20533;-65
2024/01/10 07:52:41;;;;;;;29.63;17.30;;;;;;;;;;4970431;28;20509;-64
2024/01/10 07:55:08;;;;;;;30.25;16.95;;;;;;;;;;4970242;28;20121;-63
2024/01/10 07:57:35;;;;;;;29.08;17.08;;;;;;;;;;4969662;28;20098;-64
2024/01/10 08:00:01;;;;;;;26.75;15.68;;;;;;;;;;4970198;28;20045;-64
2024/01/10 08:02:27;;;;;;;28.23;16.80;;;;;;;;;;4972324;28;20050;-64
2024/01/10 08:04:53;;;;;;;26.17;16.33;;;;;;;;;;4975090;28;20108;-64
2024/01/10 08:07:19;;;;;;;26.95;15.73;;;;;;;;;;4969963;28;20119;-64
2024/01/10 08:09:45;;;;;;;30.00;16.35;;;;;;;;;;4970301;28;20070;-64
2024/01/10 08:12:11;;;;;;;27.00;16.70;;;;;;;;;;4970294;28;20035;-64
2024/01/10 08:14:38;;;;;;;27.75;16.42;;;;;;;;;;4970635;28;20130;-63
2024/01/10 08:17:04;;;;;;;25.92;15.00;;;;;;;;;;4969559;28;20043;-65
2024/01/10 08:19:30;;;;;;;26.05;15.57;;;;;;;;;;4974147;28;20038;-64
2024/01/10 08:21:56;;;;;;;26.70;16.30;;;;;;;;;;4978797;28;20113;-64
2024/01/10 08:24:23;;;;;;;24.17;15.23;;;;;;;;;;4970355;28;20675;-63
2024/01/10 08:26:52;;;;;;;25.67;15.55;;;;;;;;;;4970239;28;20496;-64
2024/01/10 08:29:21;;;;;;;28.95;16.05;;;;;;;;;;4969470;28;20051;-63
2024/01/10 08:31:48;;;;;;;25.77;14.30;;;;;;;;;;4969724;28;20118;-63
2024/01/10 08:34:14;;;;;;;26.75;15.70;;;;;;;;;;4970566;28;20721;-64
2024/01/10 08:36:40;;;;;;;29.30;15.38;;;;;;;;;;4969572;28;20057;-64
2024/01/10 08:39:06;;;;;;;26.23;15.88;;;;;;;;;;4969814;28;20486;-64
2024/01/10 08:41:33;;;;;;;25.23;15.43;;;;;;;;;;4974464;28;20046;-64
2024/01/10 08:43:59;;;;;;;26.13;15.05;;;;;;;;;;4969621;28;20101;-64
2024/01/10 08:46:25;;;;;;;25.50;15.02;;;;;;;;;;4969796;28;20058;-65
2024/01/10 08:48:52;;;;;;;25.52;15.18;;;;;;;;;;4969024;28;20089;-64
2024/01/10 08:51:18;;;;;;;25.27;15.80;;;;;;;;;;4969647;28;20093;-64
2024/01/10 08:53:44;;;;;;;25.13;14.98;;;;;;;;;;4952448;28;20050;-64
2024/01/10 08:56:10;;;;;;;25.77;14.93;;;;;;;;;;4970075;28;20047;-65
2024/01/10 08:58:36;;;;;;;24.65;14.27;;;;;;;;;;4969262;28;20125;-64
2024/01/10 09:01:04;;;;;;;24.67;14.15;;;;;;;;;;4969317;28;20063;-64
2024/01/10 09:03:30;;;;;;;25.23;14.65;;;;;;;;;;4969016;28;20051;-68
2024/01/10 09:05:56;;;;;;;25.98;14.70;;;;;;;;;;4968388;28;20482;-68
2024/01/10 09:08:23;;;;;;;24.80;14.18;;;;;;;;;;4969836;28;20043;-68
2024/01/10 09:10:49;;;;;;;30.30;15.55;;;;;;;;;;4971438;28;20047;-67
2024/01/10 09:13:15;;;;;;;28.10;15.48;;;;;;;;;;4970859;28;20042;-68
2024/01/10 09:15:41;;;;;;;24.02;14.40;;;;;;;;;;4971599;28;20113;-68
2024/01/10 09:18:08;;;;;;;25.40;14.73;;;;;;;;;;4970774;28;20042;-68
2024/01/10 09:20:35;;;;;;;24.88;13.93;;;;;;;;;;4971390;28;20137;-67
2024/01/10 09:23:02;;;;;;;26.27;14.45;;;;;;;;;;4971525;28;20047;-67
2024/01/10 09:25:28;;;;;;;24.42;13.85;;;;;;;;;;4973702;28;20042;-67
2024/01/10 09:27:54;;;;;;;24.63;13.82;;;;;;;;;;4970426;28;20050;-67
2024/01/10 09:30:20;;;;;;;23.10;14.35;;;;;;;;;;4971515;28;20054;-68
2024/01/10 09:32:46;;;;;;;22.90;13.07;;;;;;;;;;4971398;28;20038;-67
2024/01/10 09:35:12;;;;;;;24.27;13.75;;;;;;;;;;4969137;28;20069;-67
2024/01/10 09:37:39;;;;;;;25.30;13.95;;;;;;;;;;4970323;28;20043;-67
2024/01/10 09:40:08;;;;;;;25.80;14.60;;;;;;;;;;4971098;28;20127;-67
2024/01/10 09:42:36;;;;;;;23.98;12.98;;;;;;;;;;4971013;28;20054;-67
2024/01/10 09:45:05;;;;;;;25.00;12.93;;;;;;;;;;4971142;28;20548;-67
2024/01/10 09:47:32;;;;;;;24.95;13.52;;;;;;;;;;4968307;28;20046;-67
2024/01/10 09:49:58;;;;;;;19.88;12.32;;;;;;;;;;4969099;28;20050;-68
2024/01/10 09:52:25;;;;;;;23.30;12.80;;;;;;;;;;4970098;28;20109;-67
2024/01/10 09:54:56;;;;;;;21.08;12.27;;;;;;;;;;4968372;28;20456;-67
2024/01/10 09:57:23;;;;;;;21.88;12.65;;;;;;;;;;4969525;28;20767;-67
2024/01/10 09:59:51;;;;;;;21.75;12.27;;;;;;;;;;4970485;28;20101;-67
2024/01/10 10:02:18;;;;;;;22.80;12.55;;;;;;;;;;4970912;28;20063;-67
2024/01/10 10:04:49;;;;;;;21.52;11.43;;;;;;;;;;4967916;28;20054;-68
2024/01/10 10:07:15;;;;;;;22.60;12.13;;;;;;;;;;4967949;28;20043;-67
2024/01/10 10:09:42;;;;;;;23.05;12.48;;;;;;;;;;4970823;28;20529;-67
2024/01/10 10:12:08;;;;;;;23.77;12.50;;;;;;;;;;4975692;28;20066;-68
2024/01/10 10:14:34;;;;;;;23.70;12.25;;;;;;;;;;4972186;28;20130;-67
2024/01/10 10:17:16;;;;;;;23.67;12.48;;;;;;;;;;4986809;28;20134;-67
2024/01/10 10:19:43;;;;;;;22.38;11.77;;;;;;;;;;4956644;28;20055;-67
2024/01/10 10:22:09;;;;;;;23.20;11.88;;;;;;;;;;4971628;28;20608;-67
2024/01/10 10:24:35;;;;;;;21.40;11.88;;;;;;;;;;4971668;28;20091;-67
2024/01/10 10:27:01;;;;;;;23.70;11.88;;;;;;;;;;4974992;28;20047;-67
2024/01/10 10:29:27;;;;;;;22.42;11.93;;;;;;;;;;4970831;28;20051;-68
2024/01/10 10:31:53;;;;;;;23.02;12.05;;;;;;;;;;4973833;28;20034;-68
2024/01/10 10:34:22;;;;;;;23.48;12.23;;;;;;;;;;4971692;28;20038;-68
2024/01/10 10:36:49;;;;;;;24.13;12.25;;;;;;;;;;4978920;28;20051;-68
2024/01/10 10:39:18;;;;;;;23.33;12.15;;;;;;;;;;4977388;28;20500;-68
2024/01/10 10:41:43;;;;;;;26.00;12.45;;;;;;;;;;4983052;28;20670;-68
2024/01/10 10:44:10;;;;;;;22.58;11.73;;;;;;;;;;4970958;28;20138;-68
2024/01/10 10:46:37;;;;;;;23.95;11.75;;;;;;;;;;4971345;28;20042;-69
2024/01/10 10:49:07;;;;;;;22.90;11.15;;;;;;;;;;4974725;28;20061;-68
2024/01/10 10:51:33;;;;;;;21.23;10.77;;;;;;;;;;4976321;28;20090;-68
2024/01/10 10:54:00;;;;;;;21.10;11.32;;;;;;;;;;4971106;28;20078;-68
2024/01/10 10:56:30;;;;;;;26.15;11.95;;;;;;;;;;4975361;28;20385;-68
2024/01/10 10:58:57;;;;;;;21.20;10.55;;;;;;;;;;4978158;28;20042;-68
2024/01/10 11:01:23;;;;;;;20.90;11.23;;;;;;;;;;4955654;28;20059;-68
2024/01/10 11:03:49;;;;;;;22.45;11.20;;;;;;;;;;4970552;28;20413;-68
2024/01/10 11:06:17;;;;;;;23.45;11.35;;;;;;;;;;4969271;28;20402;-68
2024/01/10 11:08:50;;;;;;;21.70;11.50;;;;;;;;;;4969762;28;20393;-68
2024/01/10 11:11:48;;;;;;;18.95;10.77;;;;;;;;;;4978249;28;20487;-68
2024/01/10 11:14:29;;;;;;;20.10;10.10;;;;;;;;;;4960537;28;20050;-68
2024/01/10 11:16:58;;;;;;;21.95;10.60;;;;;;;;;;4951954;28;20513;-68
2024/01/10 11:19:39;;;;;;;20.98;11.18;;;;;;;;;;4967347;28;20050;-68
2024/01/10 11:22:24;;;;;;;21.50;10.80;;;;;;;;;;4967749;28;20053;-68
2024/01/10 11:24:50;;;;;;;18.92;10.07;;;;;;;;;;4979187;28;20042;-68
2024/01/10 11:27:16;;;;;;;21.73;9.82;;;;;;;;;;4972201;28;20043;-68
2024/01/10 11:29:43;;;;;;;18.85;9.55;;;;;;;;;;4967867;28;20042;-68
2024/01/10 11:32:16;;;;;;;16.45;8.45;;;;;;;;;;4956479;28;20047;-68
2024/01/10 11:34:55;;;;;;;20.52;9.65;;;;;;;;;;4970254;28;20035;-69
2024/01/10 11:37:21;;;;;;;18.15;10.02;;;;;;;;;;4974515;28;20039;-68
2024/01/10 11:39:47;;;;;;;19.92;9.45;;;;;;;;;;4969883;28;20038;-68
2024/01/10 11:42:22;;;;;;;18.55;9.10;;;;;;;;;;4964694;28;20043;-68
2024/01/10 11:44:49;;;;;;;19.15;9.30;;;;;;;;;;4969886;28;20110;-68
2024/01/10 11:47:15;;;;;;;24.77;9.55;;;;;;;;;;4970158;28;20045;-68
2024/01/10 11:49:53;;;;;;;17.90;9.10;;;;;;;;;;4970395;28;20486;-69
2024/01/10 11:52:21;;;;;;;17.45;8.52;;;;;;;;;;4970548;28;20046;-69
2024/01/10 11:54:48;;;;;;;20.90;9.77;;;;;;;;;;4969619;28;20624;-69
2024/01/10 11:57:26;;;;;;;17.35;8.57;;;;;;;;;;4968724;28;20039;-69
2024/01/10 11:59:54;;;;;;;16.38;9.00;;;;;;;;;;4955867;28;20050;-69
2024/01/10 12:02:20;;;;;;;22.17;9.68;;;;;;;;;;4967958;28;20050;-69
2024/01/10 12:04:47;;;;;;;18.27;8.63;;;;;;;;;;4962901;28;20055;-69
2024/01/10 12:07:13;;;;;;;17.60;8.90;;;;;;;;;;4968385;28;20086;-69
2024/01/10 12:09:39;;;;;;;16.55;8.15;;;;;;;;;;4967793;28;20058;-69
2024/01/10 12:12:06;;;;;;;14.85;8.00;;;;;;;;;;4953972;28;20055;-69
2024/01/10 12:14:32;;;;;;;16.48;7.97;;;;;;;;;;4968265;28;20134;-69
2024/01/10 12:16:59;;;;;;;17.27;9.10;;;;;;;;;;4951029;28;20121;-69
2024/01/10 12:19:26;;;;;;;14.23;7.93;;;;;;;;;;4934619;28;20042;-69
2024/01/10 12:21:52;;;;;;;19.02;8.48;;;;;;;;;;4951858;28;20058;-69
2024/01/10 12:24:18;;;;;;;17.30;8.57;;;;;;;;;;4951533;28;20058;-69
2024/01/10 12:26:48;;;;;;;16.85;8.55;;;;;;;;;;4965136;28;20042;-69
2024/01/10 12:29:17;;;;;;;16.40;8.75;;;;;;;;;;4964315;28;20130;-69
2024/01/10 12:31:45;;;;;;;18.92;8.63;;;;;;;;;;4963214;28;20078;-69
2024/01/10 12:34:11;;;;;;;15.63;8.30;;;;;;;;;;4968511;28;20616;-70
2024/01/10 12:36:37;;;;;;;19.38;8.70;;;;;;;;;;4969875;28;20069;-69
2024/01/10 12:39:06;;;;;;;20.55;10.00;;;;;;;;;;4968384;28;20039;-69
2024/01/10 12:41:33;;;;;;;15.98;8.27;;;;;;;;;;4974921;28;20057;-69
2024/01/10 12:44:02;;;;;;;18.38;8.38;;;;;;;;;;4965405;28;20120;-69
2024/01/10 12:46:28;;;;;;;20.63;9.45;;;;;;;;;;4956400;28;20678;-69
2024/01/10 12:49:07;;;;;;;18.73;9.45;;;;;;;;;;4972378;28;20042;-67
2024/01/10 12:51:36;;;;;;;20.63;9.75;;;;;;;;;;4972761;28;20058;-65
2024/01/10 12:54:03;;;;;;;19.90;9.63;;;;;;;;;;4973751;28;20050;-66
2024/01/10 12:56:30;;;;;;;23.40;9.48;;;;;;;;;;4973265;28;20397;-66
2024/01/10 12:58:57;;;;;;;19.83;9.73;;;;;;;;;;4960655;28;20047;-66
2024/01/10 13:01:23;;;;;;;18.77;8.57;;;;;;;;;;4966207;28;20198;-65
2024/01/10 13:03:50;;;;;;;18.00;9.30;;;;;;;;;;4965934;28;20046;-64
2024/01/10 13:06:19;;;;;;;15.35;9.05;;;;;;;;;;4972996;28;20065;-64
2024/01/10 13:08:49;;;;;;;18.40;8.55;;;;;;;;;;4972576;28;20086;-64
2024/01/10 13:11:15;;;;;;;14.73;8.23;;;;;;;;;;4976399;28;20041;-64
2024/01/10 13:13:43;;;;;;;15.68;7.88;;;;;;;;;;4977930;28;20043;-65
2024/01/10 13:16:12;;;;;;;16.05;7.80;;;;;;;;;;4954228;28;20047;-66
2024/01/10 13:18:38;;;;;;;13.30;7.30;;;;;;;;;;4960500;28;20137;-66
2024/01/10 13:21:05;;;;;;;14.50;7.57;;;;;;;;;;4964655;28;20383;-66
2024/01/10 13:23:31;;;;;;;14.15;7.78;;;;;;;;;;4969123;28;20043;-66
2024/01/10 13:25:57;;;;;;;14.85;7.78;;;;;;;;;;4972653;28;20035;-66
2024/01/10 13:28:23;;;;;;;12.98;7.10;;;;;;;;;;4973375;28;20043;-66
2024/01/10 13:30:50;;;;;;;15.25;7.50;;;;;;;;;;4970350;28;20496;-66
2024/01/10 13:33:18;;;;;;;15.43;7.32;;;;;;;;;;4973142;28;20046;-64
2024/01/10 13:35:44;;;;;;;11.80;6.97;;;;;;;;;;4973201;28;20490;-65
2024/01/10 13:38:10;;;;;;;10.65;6.13;;;;;;;;;;4972772;28;20051;-66
2024/01/10 13:40:36;;;;;;;13.00;6.95;;;;;;;;;;4973972;28;20490;-64
2024/01/10 13:43:02;;;;;;;13.15;7.57;;;;;;;;;;4972592;28;20035;-65
2024/01/10 13:45:29;;;;;;;11.75;6.97;;;;;;;;;;4972325;28;20045;-64
2024/01/10 13:47:55;;;;;;;14.50;7.68;;;;;;;;;;4972834;28;20046;-65
2024/01/10 13:50:21;;;;;;;15.02;7.10;;;;;;;;;;4971572;28;20050;-65
2024/01/10 13:52:47;;;;;;;13.25;7.53;;;;;;;;;;4972032;28;20074;-65
2024/01/10 13:55:13;;;;;;;12.80;7.15;;;;;;;;;;4972352;28;20066;-65
2024/01/10 13:57:39;;;;;;;11.68;6.57;;;;;;;;;;4972046;28;20069;-65
2024/01/10 14:00:14;;;;;;;12.93;7.43;;;;;;;;;;4971993;28;20039;-65
2024/01/10 14:02:40;;;;;;;12.20;6.50;;;;;;;;;;4972076;28;20184;-65
2024/01/10 14:05:09;;;;;;;16.45;8.05;;;;;;;;;;4972381;28;20142;-65
2024/01/10 14:07:35;;;;;;;15.15;6.93;;;;;;;;;;4981071;28;20092;-65
2024/01/10 14:10:01;;;;;;;17.20;7.68;;;;;;;;;;4977648;28;20047;-65
2024/01/10 14:12:30;;;;;;;12.68;7.28;;;;;;;;;;4971372;28;20062;-65
2024/01/10 14:14:56;;;;;;;14.25;6.97;;;;;;;;;;4972134;28;20058;-65
2024/01/10 14:17:22;;;;;;;13.70;7.47;;;;;;;;;;4972598;28;20050;-64